sensor_id;sensor_type;location;lat;lon;timestamp;pressure;altitude;pressure_sealevel;temperature;humidity
65606;BME280;52276;48.906;2.384;2023-03-01T00:00:18;88103.997802734;;;6;32.7
65606;BME280;52276;48.906;2.384;2023-03-01T00:01:18;88103.997802734;;;6;32.6
65606;BME280;52276;48.906;2.384;2023-03-01T00:02:20;88103.997802734;;;6;32.7
65606;BME280;52276;48.906;2.384;2023-03-01T00:03:17;88103.997802734;;;6;32.7
65606;BME280;52276;48.906;2.384;2023-03-01T00:04:17;88103.997802734;;;5.9;32.7
65606;BME280;52276;48.906;2.384;2023-03-01T00:05:17;88103.997802734;;;5.9;32.8
65606;BME280;52276;48.906;2.384;2023-03-01T00:06:17;88103.997802734;;;5.9;32.7
65606;BME280;52276;48.906;2.384;2023-03-01T00:07:17;88103.997802734;;;5.9;32.9
65606;BME280;52276;48.906;2.384;2023-03-01T00:08:17;88103.997802734;;;5.9;32.7
65606;BME280;52276;48.906;2.384;2023-03-01T00:09:17;88103.997802734;;;5.9;32.8
65606;BME280;52276;48.906;2.384;2023-03-01T00:10:17;88103.997802734;;;5.9;32.8
65606;BME280;52276;48.906;2.384;2023-03-01T00:11:19;88103.997802734;;;5.9;32.9
65606;BME280;52276;48.906;2.384;2023-03-01T00:12:17;88103.997802734;;;5.8;33
65606;BME280;52276;48.906;2.384;2023-03-01T00:13:17;88103.997802734;;;5.8;33
65606;BME280;52276;48.906;2.384;2023-03-01T00:14:18;88103.997802734;;;5.8;33
65606;BME280;52276;48.906;2.384;2023-03-01T00:15:17;88103.997802734;;;5.8;33
65606;BME280;52276;48.906;2.384;2023-03-01T00:16:20;88103.997802734;;;5.8;33
65606;BME280;52276;48.906;2.384;2023-03-01T00:17:17;88103.997802734;;;5.8;33.1
65606;BME280;52276;48.906;2.384;2023-03-01T00:18:18;88103.997802734;;;5.8;33
65606;BME280;52276;48.906;2.384;2023-03-01T00:19:20;88103.997802734;;;5.8;33.2
65606;BME280;52276;48.906;2.384;2023-03-01T00:20:17;88103.997802734;;;5.8;33.2
65606;BME280;52276;48.906;2.384;2023-03-01T00:21:18;88103.997802734;;;5.7;33.1
65606;BME280;52276;48.906;2.384;2023-03-01T00:22:17;88103.997802734;;;5.8;33.3
65606;BME280;52276;48.906;2.384;2023-03-01T00:23:17;88103.997802734;;;5.7;33.4
65606;BME280;52276;48.906;2.384;2023-03-01T00:24:17;88103.997802734;;;5.7;33.2
65606;BME280;52276;48.906;2.384;2023-03-01T00:25:17;88103.997802734;;;5.7;33.1
65606;BME280;52276;48.906;2.384;2023-03-01T00:26:18;88103.997802734;;;5.7;33.3
65606;BME280;52276;48.906;2.384;2023-03-01T00:27:17;88103.997802734;;;5.7;33.3
65606;BME280;52276;48.906;2.384;2023-03-01T00:28:19;88103.997802734;;;5.7;33.3
65606;BME280;52276;48.906;2.384;2023-03-01T00:29:17;88103.997802734;;;5.7;33.5
65606;BME280;52276;48.906;2.384;2023-03-01T00:30:18;88103.997802734;;;5.7;33.5
65606;BME280;52276;48.906;2.384;2023-03-01T00:31:18;88103.997802734;;;5.7;33.5
65606;BME280;52276;48.906;2.384;2023-03-01T00:32:17;88103.997802734;;;5.6;33.7
65606;BME280;52276;48.906;2.384;2023-03-01T00:33:17;88103.997802734;;;5.6;33.5
65606;BME280;52276;48.906;2.384;2023-03-01T00:34:17;88103.997802734;;;5.6;33.5
65606;BME280;52276;48.906;2.384;2023-03-01T00:35:17;88103.997802734;;;5.6;33.6
65606;BME280;52276;48.906;2.384;2023-03-01T00:36:17;88103.997802734;;;5.6;33.7
65606;BME280;52276;48.906;2.384;2023-03-01T00:37:17;88103.997802734;;;5.6;33.6
65606;BME280;52276;48.906;2.384;2023-03-01T00:38:17;88103.997802734;;;5.6;33.7
65606;BME280;52276;48.906;2.384;2023-03-01T00:39:17;88103.997802734;;;5.6;33.8
65606;BME280;52276;48.906;2.384;2023-03-01T00:40:17;88103.997802734;;;5.6;33.8
65606;BME280;52276;48.906;2.384;2023-03-01T00:41:18;88103.997802734;;;5.6;33.8
65606;BME280;52276;48.906;2.384;2023-03-01T00:42:17;88103.997802734;;;5.6;33.9
65606;BME280;52276;48.906;2.384;2023-03-01T00:43:17;88103.997802734;;;5.6;33.9
65606;BME280;52276;48.906;2.384;2023-03-01T00:44:17;88103.997802734;;;5.5;33.8
65606;BME280;52276;48.906;2.384;2023-03-01T00:45:18;88103.997802734;;;5.5;34
65606;BME280;52276;48.906;2.384;2023-03-01T00:46:19;88103.997802734;;;5.5;33.8
65606;BME280;52276;48.906;2.384;2023-03-01T00:47:18;88103.997802734;;;5.5;33.8
65606;BME280;52276;48.906;2.384;2023-03-01T00:48:17;88103.997802734;;;5.5;34
65606;BME280;52276;48.906;2.384;2023-03-01T00:49:17;88103.997802734;;;5.5;34.1
65606;BME280;52276;48.906;2.384;2023-03-01T00:50:19;88103.997802734;;;5.5;34
65606;BME280;52276;48.906;2.384;2023-03-01T00:51:23;88103.997802734;;;5.5;34.1
65606;BME280;52276;48.906;2.384;2023-03-01T00:52:17;88103.997802734;;;5.5;34.1
65606;BME280;52276;48.906;2.384;2023-03-01T00:53:17;88103.997802734;;;5.5;34.1
65606;BME280;52276;48.906;2.384;2023-03-01T00:54:17;88103.997802734;;;5.5;34.1
65606;BME280;52276;48.906;2.384;2023-03-01T00:55:17;88103.997802734;;;5.5;34.2
65606;BME280;52276;48.906;2.384;2023-03-01T00:56:18;88103.997802734;;;5.5;34.2
65606;BME280;52276;48.906;2.384;2023-03-01T00:57:17;88103.997802734;;;5.5;34.3
65606;BME280;52276;48.906;2.384;2023-03-01T00:58:17;88103.997802734;;;5.4;34.4
65606;BME280;52276;48.906;2.384;2023-03-01T00:59:17;88103.997802734;;;5.4;34.3
65606;BME280;52276;48.906;2.384;2023-03-01T01:00:18;88103.997802734;;;5.4;34.3
65606;BME280;52276;48.906;2.384;2023-03-01T01:01:18;88103.997802734;;;5.4;34.3
65606;BME280;52276;48.906;2.384;2023-03-01T01:02:17;88103.997802734;;;5.4;34.3
65606;BME280;52276;48.906;2.384;2023-03-01T01:03:17;88103.997802734;;;5.4;34.5
65606;BME280;52276;48.906;2.384;2023-03-01T01:04:18;88103.997802734;;;5.4;34.5
65606;BME280;52276;48.906;2.384;2023-03-01T01:05:17;88103.997802734;;;5.4;34.5
65606;BME280;52276;48.906;2.384;2023-03-01T01:06:18;88103.997802734;;;5.4;34.4
65606;BME280;52276;48.906;2.384;2023-03-01T01:07:18;88103.997802734;;;5.4;34.5
65606;BME280;52276;48.906;2.384;2023-03-01T01:08:18;88103.997802734;;;5.4;34.6
65606;BME280;52276;48.906;2.384;2023-03-01T01:09:18;88103.997802734;;;5.4;34.6
65606;BME280;52276;48.906;2.384;2023-03-01T01:10:17;88103.997802734;;;5.4;34.7
65606;BME280;52276;48.906;2.384;2023-03-01T01:11:18;88103.997802734;;;5.4;34.7
65606;BME280;52276;48.906;2.384;2023-03-01T01:12:18;88103.997802734;;;5.4;34.7
65606;BME280;52276;48.906;2.384;2023-03-01T01:13:17;88103.997802734;;;5.4;34.7
65606;BME280;52276;48.906;2.384;2023-03-01T01:14:18;88103.997802734;;;5.3;34.6
65606;BME280;52276;48.906;2.384;2023-03-01T01:15:17;88103.997802734;;;5.4;34.8
65606;BME280;52276;48.906;2.384;2023-03-01T01:16:19;88103.997802734;;;5.3;34.8
65606;BME280;52276;48.906;2.384;2023-03-01T01:17:17;88103.997802734;;;5.4;34.9
65606;BME280;52276;48.906;2.384;2023-03-01T01:18:17;88103.997802734;;;5.3;34.9
65606;BME280;52276;48.906;2.384;2023-03-01T01:19:17;88103.997802734;;;5.3;34.9
65606;BME280;52276;48.906;2.384;2023-03-01T01:20:18;88103.997802734;;;5.3;34.9
65606;BME280;52276;48.906;2.384;2023-03-01T01:21:18;88103.997802734;;;5.3;35
65606;BME280;52276;48.906;2.384;2023-03-01T01:22:23;88103.997802734;;;5.3;34.9
65606;BME280;52276;48.906;2.384;2023-03-01T01:23:17;88103.997802734;;;5.3;34.9
65606;BME280;52276;48.906;2.384;2023-03-01T01:24:18;88103.997802734;;;5.3;35
65606;BME280;52276;48.906;2.384;2023-03-01T01:25:17;88103.997802734;;;5.3;35
65606;BME280;52276;48.906;2.384;2023-03-01T01:26:19;88103.997802734;;;5.3;34.9
65606;BME280;52276;48.906;2.384;2023-03-01T01:27:18;88103.997802734;;;5.3;35.1
65606;BME280;52276;48.906;2.384;2023-03-01T01:28:18;88103.997802734;;;5.3;35.2
65606;BME280;52276;48.906;2.384;2023-03-01T01:29:18;88103.997802734;;;5.3;35.2
65606;BME280;52276;48.906;2.384;2023-03-01T01:30:17;88103.997802734;;;5.3;35.1
65606;BME280;52276;48.906;2.384;2023-03-01T01:31:17;88103.997802734;;;5.3;35.2
65606;BME280;52276;48.906;2.384;2023-03-01T01:32:17;88103.997802734;;;5.3;35.2
65606;BME280;52276;48.906;2.384;2023-03-01T01:33:17;88103.997802734;;;5.3;35.2
65606;BME280;52276;48.906;2.384;2023-03-01T01:34:18;88103.997802734;;;5.2;35.4
65606;BME280;52276;48.906;2.384;2023-03-01T01:35:17;88103.997802734;;;5.2;35.4
65606;BME280;52276;48.906;2.384;2023-03-01T01:36:18;88103.997802734;;;5.2;35.4
65606;BME280;52276;48.906;2.384;2023-03-01T01:37:19;88103.997802734;;;5.2;35.4
65606;BME280;52276;48.906;2.384;2023-03-01T01:38:18;88103.997802734;;;5.2;35.4
65606;BME280;52276;48.906;2.384;2023-03-01T01:39:17;88103.997802734;;;5.2;35.3
65606;BME280;52276;48.906;2.384;2023-03-01T01:40:17;88103.997802734;;;5.2;35.3
65606;BME280;52276;48.906;2.384;2023-03-01T01:41:18;88103.997802734;;;5.2;35.4
65606;BME280;52276;48.906;2.384;2023-03-01T01:42:18;88103.997802734;;;5.2;35.4
65606;BME280;52276;48.906;2.384;2023-03-01T01:43:19;88103.997802734;;;5.2;33.5
65606;BME280;52276;48.906;2.384;2023-03-01T01:44:19;88103.997802734;;;5.2;35.4
65606;BME280;52276;48.906;2.384;2023-03-01T01:45:27;88103.997802734;;;5.2;35.3
65606;BME280;52276;48.906;2.384;2023-03-01T01:46:21;88103.997802734;;;5.2;35.3
65606;BME280;52276;48.906;2.384;2023-03-01T01:47:18;88103.997802734;;;5.2;35.4
65606;BME280;52276;48.906;2.384;2023-03-01T01:48:19;88103.997802734;;;5.2;35.4
65606;BME280;52276;48.906;2.384;2023-03-01T01:49:22;88103.997802734;;;5.1;35.3
65606;BME280;52276;48.906;2.384;2023-03-01T01:50:17;88103.997802734;;;5.2;35.4
65606;BME280;52276;48.906;2.384;2023-03-01T01:51:18;88103.997802734;;;5.1;35.3
65606;BME280;52276;48.906;2.384;2023-03-01T01:52:18;88103.997802734;;;5.1;35.3
65606;BME280;52276;48.906;2.384;2023-03-01T01:53:18;88103.997802734;;;5.1;35.3
65606;BME280;52276;48.906;2.384;2023-03-01T01:54:20;88103.997802734;;;5.1;35.3
65606;BME280;52276;48.906;2.384;2023-03-01T01:55:18;88103.997802734;;;5.1;35.6
65606;BME280;52276;48.906;2.384;2023-03-01T01:56:17;88103.997802734;;;5.1;35.5
65606;BME280;52276;48.906;2.384;2023-03-01T01:57:18;88103.997802734;;;5.1;35.7
65606;BME280;52276;48.906;2.384;2023-03-01T01:58:18;88103.997802734;;;5.1;35.6
65606;BME280;52276;48.906;2.384;2023-03-01T01:59:17;88103.997802734;;;5.1;35.6
65606;BME280;52276;48.906;2.384;2023-03-01T02:00:18;88103.997802734;;;5.1;35.7
65606;BME280;52276;48.906;2.384;2023-03-01T02:01:17;88103.997802734;;;5.1;35.7
65606;BME280;52276;48.906;2.384;2023-03-01T02:02:17;88103.997802734;;;5.1;35.7
65606;BME280;52276;48.906;2.384;2023-03-01T02:03:18;88103.997802734;;;5.1;35.8
65606;BME280;52276;48.906;2.384;2023-03-01T02:04:18;88103.997802734;;;5.1;33.9
65606;BME280;52276;48.906;2.384;2023-03-01T02:05:19;88103.997802734;;;5;35.8
65606;BME280;52276;48.906;2.384;2023-03-01T02:06:19;88103.997802734;;;5;35.7
65606;BME280;52276;48.906;2.384;2023-03-01T02:07:19;88103.997802734;;;5;35.8
65606;BME280;52276;48.906;2.384;2023-03-01T02:08:18;88103.997802734;;;5;35.8
65606;BME280;52276;48.906;2.384;2023-03-01T02:09:18;88103.997802734;;;5;35.8
65606;BME280;52276;48.906;2.384;2023-03-01T02:10:18;88103.997802734;;;5;35.9
65606;BME280;52276;48.906;2.384;2023-03-01T02:11:18;88103.997802734;;;5;35.9
65606;BME280;52276;48.906;2.384;2023-03-01T02:12:18;88103.997802734;;;5;35.8
65606;BME280;52276;48.906;2.384;2023-03-01T02:13:18;88103.997802734;;;5;36
65606;BME280;52276;48.906;2.384;2023-03-01T02:14:18;88103.997802734;;;5;36
65606;BME280;52276;48.906;2.384;2023-03-01T02:15:18;88103.997802734;;;5;36
65606;BME280;52276;48.906;2.384;2023-03-01T02:16:18;88103.997802734;;;5;36
65606;BME280;52276;48.906;2.384;2023-03-01T02:17:19;88103.997802734;;;4.9;36
65606;BME280;52276;48.906;2.384;2023-03-01T02:18:18;88103.997802734;;;5;34.7
65606;BME280;52276;48.906;2.384;2023-03-01T02:19:21;88103.997802734;;;5;36.1
65606;BME280;52276;48.906;2.384;2023-03-01T02:20:19;88103.997802734;;;4.9;36.3
65606;BME280;52276;48.906;2.384;2023-03-01T02:21:22;88103.997802734;;;4.9;36.2
65606;BME280;52276;48.906;2.384;2023-03-01T02:22:20;88103.997802734;;;4.9;36.1
65606;BME280;52276;48.906;2.384;2023-03-01T02:23:18;88103.997802734;;;4.9;36.2
65606;BME280;52276;48.906;2.384;2023-03-01T02:24:20;88103.997802734;;;4.9;36.2
65606;BME280;52276;48.906;2.384;2023-03-01T02:25:27;88103.997802734;;;4.9;36.3
65606;BME280;52276;48.906;2.384;2023-03-01T02:26:18;88103.997802734;;;4.9;36.3
65606;BME280;52276;48.906;2.384;2023-03-01T02:27:18;88103.997802734;;;4.9;36.3
65606;BME280;52276;48.906;2.384;2023-03-01T02:28:21;88103.997802734;;;4.9;35.2
65606;BME280;52276;48.906;2.384;2023-03-01T02:29:19;88103.997802734;;;4.9;36.4
65606;BME280;52276;48.906;2.384;2023-03-01T02:30:18;88103.997802734;;;4.9;36.4
65606;BME280;52276;48.906;2.384;2023-03-01T02:31:19;88103.997802734;;;4.9;35
65606;BME280;52276;48.906;2.384;2023-03-01T02:32:19;88103.997802734;;;4.8;36.4
65606;BME280;52276;48.906;2.384;2023-03-01T02:33:18;88103.997802734;;;4.8;36.6
65606;BME280;52276;48.906;2.384;2023-03-01T02:34:19;88103.997802734;;;4.8;36.5
65606;BME280;52276;48.906;2.384;2023-03-01T02:35:18;88103.997802734;;;4.8;36.5
65606;BME280;52276;48.906;2.384;2023-03-01T02:36:18;88103.997802734;;;4.8;36.5
65606;BME280;52276;48.906;2.384;2023-03-01T02:37:18;88103.997802734;;;4.8;36.6
65606;BME280;52276;48.906;2.384;2023-03-01T02:38:18;88103.997802734;;;4.8;36.5
65606;BME280;52276;48.906;2.384;2023-03-01T02:39:18;88103.997802734;;;4.8;36.7
65606;BME280;52276;48.906;2.384;2023-03-01T02:40:18;88103.997802734;;;4.8;36.7
65606;BME280;52276;48.906;2.384;2023-03-01T02:41:18;88103.997802734;;;4.8;36.9
65606;BME280;52276;48.906;2.384;2023-03-01T02:42:19;88103.997802734;;;4.8;36.8
65606;BME280;52276;48.906;2.384;2023-03-01T02:43:18;88103.997802734;;;4.8;36.7
65606;BME280;52276;48.906;2.384;2023-03-01T02:44:18;88103.997802734;;;4.8;36.7
65606;BME280;52276;48.906;2.384;2023-03-01T02:45:18;88103.997802734;;;4.7;36.6
65606;BME280;52276;48.906;2.384;2023-03-01T02:46:19;88103.997802734;;;4.8;36.9
65606;BME280;52276;48.906;2.384;2023-03-01T02:47:18;88103.997802734;;;4.8;36.8
65606;BME280;52276;48.906;2.384;2023-03-01T02:48:18;88103.997802734;;;4.8;36.8
65606;BME280;52276;48.906;2.384;2023-03-01T02:49:20;88103.997802734;;;4.8;36.8
65606;BME280;52276;48.906;2.384;2023-03-01T02:50:22;88103.997802734;;;4.8;36.8
65606;BME280;52276;48.906;2.384;2023-03-01T02:51:22;88103.997802734;;;4.8;36.8
65606;BME280;52276;48.906;2.384;2023-03-01T02:52:22;88103.997802734;;;4.8;36.9
65606;BME280;52276;48.906;2.384;2023-03-01T02:53:27;88103.997802734;;;4.8;36.8
65606;BME280;52276;48.906;2.384;2023-03-01T02:54:20;88103.997802734;;;4.8;36.9
65606;BME280;52276;48.906;2.384;2023-03-01T02:55:18;88103.997802734;;;4.8;36.9
65606;BME280;52276;48.906;2.384;2023-03-01T02:56:19;88103.997802734;;;4.8;36.9
65606;BME280;52276;48.906;2.384;2023-03-01T02:57:18;88103.997802734;;;4.8;36.9
65606;BME280;52276;48.906;2.384;2023-03-01T02:58:19;88103.997802734;;;4.8;36.9
65606;BME280;52276;48.906;2.384;2023-03-01T02:59:19;88103.997802734;;;4.8;37
65606;BME280;52276;48.906;2.384;2023-03-01T03:00:19;88103.997802734;;;4.8;36.9
65606;BME280;52276;48.906;2.384;2023-03-01T03:01:18;88103.997802734;;;4.8;36.9
65606;BME280;52276;48.906;2.384;2023-03-01T03:02:18;88103.997802734;;;4.7;37.2
65606;BME280;52276;48.906;2.384;2023-03-01T03:03:19;88103.997802734;;;4.7;37
65606;BME280;52276;48.906;2.384;2023-03-01T03:04:18;88103.997802734;;;4.7;37
65606;BME280;52276;48.906;2.384;2023-03-01T03:05:18;88103.997802734;;;4.7;37
65606;BME280;52276;48.906;2.384;2023-03-01T03:06:18;88103.997802734;;;4.7;37.1
65606;BME280;52276;48.906;2.384;2023-03-01T03:07:18;88103.997802734;;;4.7;37.1
65606;BME280;52276;48.906;2.384;2023-03-01T03:08:18;88103.997802734;;;4.7;37.2
65606;BME280;52276;48.906;2.384;2023-03-01T03:09:18;88103.997802734;;;4.7;37.2
65606;BME280;52276;48.906;2.384;2023-03-01T03:10:19;88103.997802734;;;4.7;37.1
65606;BME280;52276;48.906;2.384;2023-03-01T03:11:18;88103.997802734;;;4.7;37.2
65606;BME280;52276;48.906;2.384;2023-03-01T03:12:18;88103.997802734;;;4.7;37.3
65606;BME280;52276;48.906;2.384;2023-03-01T03:13:18;88103.997802734;;;4.7;37.3
65606;BME280;52276;48.906;2.384;2023-03-01T03:14:18;88103.997802734;;;4.7;37.4
65606;BME280;52276;48.906;2.384;2023-03-01T03:15:19;88103.997802734;;;4.7;37.5
65606;BME280;52276;48.906;2.384;2023-03-01T03:16:18;88103.997802734;;;4.6;37.4
65606;BME280;52276;48.906;2.384;2023-03-01T03:17:18;88103.997802734;;;4.6;37.4
65606;BME280;52276;48.906;2.384;2023-03-01T03:18:18;88103.997802734;;;4.6;37.5
65606;BME280;52276;48.906;2.384;2023-03-01T03:19:18;88103.997802734;;;4.6;37.5
65606;BME280;52276;48.906;2.384;2023-03-01T03:20:18;88103.997802734;;;4.6;37.5
65606;BME280;52276;48.906;2.384;2023-03-01T03:21:18;88103.997802734;;;4.6;37.5
65606;BME280;52276;48.906;2.384;2023-03-01T03:22:18;88103.997802734;;;4.6;37.5
65606;BME280;52276;48.906;2.384;2023-03-01T03:23:18;88103.997802734;;;4.7;36.2
65606;BME280;52276;48.906;2.384;2023-03-01T03:24:18;88103.997802734;;;4.6;37.5
65606;BME280;52276;48.906;2.384;2023-03-01T03:25:18;88103.997802734;;;4.6;37.6
65606;BME280;52276;48.906;2.384;2023-03-01T03:26:18;88103.997802734;;;4.6;37.6
65606;BME280;52276;48.906;2.384;2023-03-01T03:27:18;88103.997802734;;;4.6;37.5
65606;BME280;52276;48.906;2.384;2023-03-01T03:28:18;88103.997802734;;;4.6;37.5
65606;BME280;52276;48.906;2.384;2023-03-01T03:29:18;88103.997802734;;;4.6;37.5
65606;BME280;52276;48.906;2.384;2023-03-01T03:30:18;88103.997802734;;;4.6;37.5
65606;BME280;52276;48.906;2.384;2023-03-01T03:31:18;88103.997802734;;;4.6;37.6
65606;BME280;52276;48.906;2.384;2023-03-01T03:32:18;88103.997802734;;;4.6;37.7
65606;BME280;52276;48.906;2.384;2023-03-01T03:33:18;88103.997802734;;;4.6;37.7
65606;BME280;52276;48.906;2.384;2023-03-01T03:34:18;88103.997802734;;;4.6;37.7
65606;BME280;52276;48.906;2.384;2023-03-01T03:35:18;88103.997802734;;;4.6;37.7
65606;BME280;52276;48.906;2.384;2023-03-01T03:36:18;88103.997802734;;;4.6;37.8
65606;BME280;52276;48.906;2.384;2023-03-01T03:37:18;88103.997802734;;;4.6;37.7
65606;BME280;52276;48.906;2.384;2023-03-01T03:38:18;88103.997802734;;;4.6;37.8
65606;BME280;52276;48.906;2.384;2023-03-01T03:39:19;88103.997802734;;;4.6;37.8
65606;BME280;52276;48.906;2.384;2023-03-01T03:40:18;88103.997802734;;;4.6;37.7
65606;BME280;52276;48.906;2.384;2023-03-01T03:41:18;88103.997802734;;;4.6;37.7
65606;BME280;52276;48.906;2.384;2023-03-01T03:42:18;88103.997802734;;;4.6;37.9
65606;BME280;52276;48.906;2.384;2023-03-01T03:43:19;88103.997802734;;;4.6;37.8
65606;BME280;52276;48.906;2.384;2023-03-01T03:44:19;88103.997802734;;;4.6;37.8
65606;BME280;52276;48.906;2.384;2023-03-01T03:45:19;88103.997802734;;;4.6;37.9
65606;BME280;52276;48.906;2.384;2023-03-01T03:46:18;88103.997802734;;;4.6;37.9
65606;BME280;52276;48.906;2.384;2023-03-01T03:47:18;88103.997802734;;;4.6;37.8
65606;BME280;52276;48.906;2.384;2023-03-01T03:48:18;88103.997802734;;;4.6;37.9
65606;BME280;52276;48.906;2.384;2023-03-01T03:49:18;88103.997802734;;;4.6;37.9
65606;BME280;52276;48.906;2.384;2023-03-01T03:50:18;88103.997802734;;;4.6;37.9
65606;BME280;52276;48.906;2.384;2023-03-01T03:51:18;88103.997802734;;;4.6;38
65606;BME280;52276;48.906;2.384;2023-03-01T03:52:18;88103.997802734;;;4.6;38
65606;BME280;52276;48.906;2.384;2023-03-01T03:53:18;88103.997802734;;;4.6;37.9
65606;BME280;52276;48.906;2.384;2023-03-01T03:54:23;88103.997802734;;;4.6;36.1
65606;BME280;52276;48.906;2.384;2023-03-01T03:55:19;88103.997802734;;;4.6;37.9
65606;BME280;52276;48.906;2.384;2023-03-01T03:56:18;88103.997802734;;;4.6;38
65606;BME280;52276;48.906;2.384;2023-03-01T03:57:18;88103.997802734;;;4.5;38
65606;BME280;52276;48.906;2.384;2023-03-01T03:58:18;88103.997802734;;;4.5;36.4
65606;BME280;52276;48.906;2.384;2023-03-01T03:59:18;88103.997802734;;;4.5;38
65606;BME280;52276;48.906;2.384;2023-03-01T04:00:18;88103.997802734;;;4.5;38
65606;BME280;52276;48.906;2.384;2023-03-01T04:01:18;88103.997802734;;;4.5;38.1
65606;BME280;52276;48.906;2.384;2023-03-01T04:02:18;88103.997802734;;;4.5;38.1
65606;BME280;52276;48.906;2.384;2023-03-01T04:03:18;88103.997802734;;;4.5;38.1
65606;BME280;52276;48.906;2.384;2023-03-01T04:04:18;88103.997802734;;;4.5;38.2
65606;BME280;52276;48.906;2.384;2023-03-01T04:05:18;88103.997802734;;;4.5;38.2
65606;BME280;52276;48.906;2.384;2023-03-01T04:06:18;88103.997802734;;;4.5;38.2
65606;BME280;52276;48.906;2.384;2023-03-01T04:07:18;88103.997802734;;;4.5;38.2
65606;BME280;52276;48.906;2.384;2023-03-01T04:08:18;88103.997802734;;;4.5;38.2
65606;BME280;52276;48.906;2.384;2023-03-01T04:09:18;88103.997802734;;;4.5;38.2
65606;BME280;52276;48.906;2.384;2023-03-01T04:10:18;88103.997802734;;;4.5;38.3
65606;BME280;52276;48.906;2.384;2023-03-01T04:11:18;88103.997802734;;;4.5;38.3
65606;BME280;52276;48.906;2.384;2023-03-01T04:12:18;88103.997802734;;;4.5;38.3
65606;BME280;52276;48.906;2.384;2023-03-01T04:13:18;88103.997802734;;;4.5;38.3
65606;BME280;52276;48.906;2.384;2023-03-01T04:14:18;88103.997802734;;;4.5;38.2
65606;BME280;52276;48.906;2.384;2023-03-01T04:15:18;88103.997802734;;;4.5;38.3
65606;BME280;52276;48.906;2.384;2023-03-01T04:16:18;88103.997802734;;;4.5;38.3
65606;BME280;52276;48.906;2.384;2023-03-01T04:17:19;88103.997802734;;;4.4;38.3
65606;BME280;52276;48.906;2.384;2023-03-01T04:18:18;88103.997802734;;;4.4;38.3
65606;BME280;52276;48.906;2.384;2023-03-01T04:19:18;88103.997802734;;;4.4;38.2
65606;BME280;52276;48.906;2.384;2023-03-01T04:20:19;88103.997802734;;;4.4;38.3
65606;BME280;52276;48.906;2.384;2023-03-01T04:21:18;88103.997802734;;;4.4;38.4
65606;BME280;52276;48.906;2.384;2023-03-01T04:22:18;88103.997802734;;;4.4;38.4
65606;BME280;52276;48.906;2.384;2023-03-01T04:23:18;88103.997802734;;;4.4;38.4
65606;BME280;52276;48.906;2.384;2023-03-01T04:24:18;88103.997802734;;;4.5;38.5
65606;BME280;52276;48.906;2.384;2023-03-01T04:25:18;88103.997802734;;;4.4;38.5
65606;BME280;52276;48.906;2.384;2023-03-01T04:26:18;88103.997802734;;;4.4;38.5
65606;BME280;52276;48.906;2.384;2023-03-01T04:27:18;88103.997802734;;;4.4;38.5
65606;BME280;52276;48.906;2.384;2023-03-01T04:28:18;88103.997802734;;;4.4;38.5
65606;BME280;52276;48.906;2.384;2023-03-01T04:29:18;88103.997802734;;;4.4;38.5
65606;BME280;52276;48.906;2.384;2023-03-01T04:30:18;88103.997802734;;;4.4;38.4
65606;BME280;52276;48.906;2.384;2023-03-01T04:31:19;88103.997802734;;;4.4;38.5
65606;BME280;52276;48.906;2.384;2023-03-01T04:32:18;88103.997802734;;;4.4;38.5
65606;BME280;52276;48.906;2.384;2023-03-01T04:33:19;88103.997802734;;;4.4;38.6
65606;BME280;52276;48.906;2.384;2023-03-01T04:34:18;88103.997802734;;;4.4;38.6
65606;BME280;52276;48.906;2.384;2023-03-01T04:35:23;88103.997802734;;;4.4;38.6
65606;BME280;52276;48.906;2.384;2023-03-01T04:36:18;88103.997802734;;;4.4;38.6
65606;BME280;52276;48.906;2.384;2023-03-01T04:37:19;88103.997802734;;;4.4;38.6
65606;BME280;52276;48.906;2.384;2023-03-01T04:38:18;88103.997802734;;;4.4;38.8
65606;BME280;52276;48.906;2.384;2023-03-01T04:39:18;88103.997802734;;;4.4;37.4
65606;BME280;52276;48.906;2.384;2023-03-01T04:40:18;88103.997802734;;;4.4;38.7
65606;BME280;52276;48.906;2.384;2023-03-01T04:41:19;88103.997802734;;;4.4;38.7
65606;BME280;52276;48.906;2.384;2023-03-01T04:42:18;88103.997802734;;;4.4;38.6
65606;BME280;52276;48.906;2.384;2023-03-01T04:43:21;88103.997802734;;;4.4;38.7
65606;BME280;52276;48.906;2.384;2023-03-01T04:44:19;88103.997802734;;;4.4;38.7
65606;BME280;52276;48.906;2.384;2023-03-01T04:45:18;88103.997802734;;;4.4;38.7
65606;BME280;52276;48.906;2.384;2023-03-01T04:46:19;88103.997802734;;;4.4;38.7
65606;BME280;52276;48.906;2.384;2023-03-01T04:47:21;88103.997802734;;;4.4;38.7
65606;BME280;52276;48.906;2.384;2023-03-01T04:48:18;88103.997802734;;;4.3;38.6
65606;BME280;52276;48.906;2.384;2023-03-01T04:49:18;88103.997802734;;;4.4;38.8
65606;BME280;52276;48.906;2.384;2023-03-01T04:50:19;88103.997802734;;;4.3;38.7
65606;BME280;52276;48.906;2.384;2023-03-01T04:51:18;88103.997802734;;;4.3;38.9
65606;BME280;52276;48.906;2.384;2023-03-01T04:52:18;88103.997802734;;;4.3;38.9
65606;BME280;52276;48.906;2.384;2023-03-01T04:53:18;88103.997802734;;;4.3;38.9
65606;BME280;52276;48.906;2.384;2023-03-01T04:54:18;88103.997802734;;;4.3;38.9
65606;BME280;52276;48.906;2.384;2023-03-01T04:55:18;88103.997802734;;;4.3;38.8
65606;BME280;52276;48.906;2.384;2023-03-01T04:56:18;88103.997802734;;;4.3;38.9
65606;BME280;52276;48.906;2.384;2023-03-01T04:57:18;88103.997802734;;;4.3;39
65606;BME280;52276;48.906;2.384;2023-03-01T04:58:18;88103.997802734;;;4.2;39
65606;BME280;52276;48.906;2.384;2023-03-01T04:59:18;88103.997802734;;;4.3;39
65606;BME280;52276;48.906;2.384;2023-03-01T05:00:18;88103.997802734;;;4.2;39.1
65606;BME280;52276;48.906;2.384;2023-03-01T05:01:19;88103.997802734;;;4.2;39.1
65606;BME280;52276;48.906;2.384;2023-03-01T05:02:18;88103.997802734;;;4.2;39